Аэропорт: Жезказган. Жезказган

ICAO: UAKD

METAR:
2018/07/16 20:00
UAKD 162000Z 05007MPS CAVOK 22/14 Q1006 R04/0///65 NOSIG RMK QFE721/0962
METAR:
2017/04/10 09:39
TAF TAF UAKD 101100Z 1009/1021 16012MPS 9999 SCT100